createdAt,value
2023-02-11T00:01:19.483Z,8.55
2023-02-11T00:03:52.901Z,9.13
2023-02-11T00:06:28.131Z,9.65
2023-02-11T00:09:01.190Z,8.23
2023-02-11T00:11:33.809Z,6.95
2023-02-11T00:14:08.509Z,9.38
2023-02-11T00:16:41.232Z,8.65
2023-02-11T00:19:14.191Z,7.60
2023-02-11T00:21:46.798Z,7.15
2023-02-11T00:24:19.756Z,6.22
2023-02-11T00:26:52.227Z,8.15
2023-02-11T00:29:25.422Z,7.60
2023-02-11T00:31:58.169Z,6.97
2023-02-11T00:34:33.989Z,8.32
2023-02-11T00:37:08.070Z,9.15
2023-02-11T00:39:40.975Z,7.13
2023-02-11T00:42:20.093Z,7.28
2023-02-11T00:44:58.386Z,7.22
2023-02-11T00:47:31.208Z,7.80
2023-02-11T00:50:06.435Z,6.80
2023-02-11T00:52:39.194Z,6.03
2023-02-11T00:55:12.260Z,6.80
2023-02-11T00:57:45.890Z,9.05
2023-02-11T01:00:24.726Z,7.35
2023-02-11T01:02:57.368Z,7.68
2023-02-11T01:05:30.910Z,6.85
2023-02-11T01:08:03.529Z,8.23
2023-02-11T01:10:36.350Z,8.10
2023-02-11T01:13:09.040Z,7.85
2023-02-11T01:15:41.990Z,7.47
2023-02-11T01:18:20.407Z,9.48
2023-02-11T01:20:56.479Z,8.45
2023-02-11T01:23:34.958Z,8.38
2023-02-11T01:26:08.194Z,8.10
2023-02-11T01:28:40.808Z,7.63
2023-02-11T01:31:18.316Z,7.53
2023-02-11T01:33:53.748Z,9.25
2023-02-11T01:36:27.803Z,7.57
2023-02-11T01:39:00.441Z,7.38
2023-02-11T01:41:33.402Z,7.65
2023-02-11T01:44:45.534Z,9.57
2023-02-11T01:47:18.853Z,11.77
2023-02-11T01:49:56.376Z,11.60
2023-02-11T01:52:35.228Z,7.50
2023-02-11T01:55:29.602Z,8.07
2023-02-11T01:58:05.469Z,7.07
2023-02-11T02:00:39.386Z,7.25
2023-02-11T02:03:18.872Z,5.55
2023-02-11T02:06:03.943Z,7.57
2023-02-11T02:08:36.906Z,8.77
2023-02-11T02:11:09.465Z,7.80
2023-02-11T02:13:43.377Z,6.68
2023-02-11T02:16:17.556Z,6.68
2023-02-11T02:18:59.425Z,6.97
2023-02-11T02:21:34.926Z,6.22
2023-02-11T02:24:31.119Z,7.57
2023-02-11T02:27:15.774Z,6.57
2023-02-11T02:29:55.468Z,9.00
2023-02-11T02:32:46.325Z,7.18
2023-02-11T02:35:31.482Z,7.80
2023-02-11T02:38:13.073Z,6.82
2023-02-11T02:40:48.879Z,6.70
2023-02-11T02:43:26.593Z,7.65
2023-02-11T02:46:16.055Z,8.27
2023-02-11T02:48:50.080Z,7.35
2023-02-11T02:51:38.260Z,9.68
2023-02-11T02:54:10.937Z,6.40
2023-02-11T02:56:46.940Z,7.82
2023-02-11T02:59:25.175Z,6.88
2023-02-11T03:02:06.943Z,8.02
2023-02-11T03:04:48.408Z,9.07
2023-02-11T03:09:53.633Z,8.07
2023-02-11T03:12:28.164Z,8.40
2023-02-11T03:15:02.354Z,7.65
2023-02-11T03:17:36.455Z,7.90
2023-02-11T03:20:11.017Z,7.18
2023-02-11T03:22:49.097Z,5.97
2023-02-11T03:25:23.119Z,7.38
2023-02-11T03:28:18.977Z,7.80
2023-02-11T03:30:58.655Z,6.95
2023-02-11T03:33:36.478Z,8.27
2023-02-11T03:36:15.798Z,8.13
2023-02-11T03:38:50.954Z,8.30
2023-02-11T03:41:24.563Z,9.25
2023-02-11T03:43:58.707Z,9.10
2023-02-11T03:46:32.820Z,8.90
2023-02-11T03:49:09.009Z,9.50
2023-02-11T03:51:42.065Z,8.50
2023-02-11T03:54:16.922Z,6.65
2023-02-11T03:56:54.377Z,7.22
2023-02-11T03:59:27.529Z,7.72
2023-02-11T04:02:00.608Z,7.85
2023-02-11T04:04:34.006Z,7.43
2023-02-11T04:07:06.589Z,8.70
2023-02-11T04:09:39.573Z,6.95
2023-02-11T04:12:12.201Z,7.22
2023-02-11T04:14:45.091Z,7.28
2023-02-11T04:17:17.926Z,6.88
2023-02-11T04:19:50.782Z,8.65
2023-02-11T04:22:23.357Z,8.75
2023-02-11T04:24:56.585Z,8.13
2023-02-11T04:27:29.207Z,8.18
2023-02-11T04:30:02.430Z,9.00
2023-02-11T04:32:35.031Z,9.13
2023-02-11T04:35:14.201Z,7.85
2023-02-11T04:37:46.934Z,8.13
2023-02-11T04:40:19.809Z,6.90
2023-02-11T04:42:53.057Z,8.27
2023-02-11T04:45:26.307Z,7.07
2023-02-11T04:47:58.960Z,7.32
2023-02-11T04:50:33.969Z,7.30
2023-02-11T04:53:13.853Z,7.55
2023-02-11T04:55:49.337Z,9.32
2023-02-11T04:58:22.173Z,6.43
2023-02-11T05:00:55.234Z,7.90
2023-02-11T05:03:27.971Z,6.28
2023-02-11T05:06:02.682Z,5.82
2023-02-11T05:08:39.803Z,7.75
2023-02-11T05:11:15.587Z,6.80
2023-02-11T05:13:48.229Z,6.68
2023-02-11T05:16:21.466Z,7.22
2023-02-11T05:18:55.922Z,7.20
2023-02-11T05:21:28.909Z,7.38
2023-02-11T05:24:01.601Z,6.38
2023-02-11T05:26:34.567Z,6.82
2023-02-11T05:29:07.146Z,7.07
2023-02-11T05:31:39.991Z,5.70
2023-02-11T05:34:12.571Z,6.88
2023-02-11T05:36:45.474Z,5.60
2023-02-11T05:39:18.099Z,7.93
2023-02-11T05:41:50.923Z,7.00
2023-02-11T05:44:23.480Z,6.53
2023-02-11T05:46:56.450Z,8.10
2023-02-11T05:49:29.187Z,9.05
2023-02-11T05:52:02.060Z,7.40
2023-02-11T05:54:34.948Z,7.13
2023-02-11T05:57:07.873Z,6.43
2023-02-11T05:59:40.563Z,7.75
2023-02-11T06:02:13.460Z,7.50
2023-02-11T06:04:46.036Z,8.63
2023-02-11T06:07:20.050Z,9.52
2023-02-11T06:09:52.815Z,7.90
2023-02-11T06:12:25.762Z,8.05
2023-02-11T06:14:58.301Z,11.15
2023-02-11T06:17:33.879Z,8.25
2023-02-11T06:20:07.420Z,8.93
2023-02-11T06:22:40.362Z,9.60
2023-02-11T06:25:13.641Z,9.68
2023-02-11T06:27:46.560Z,8.48
2023-02-11T06:30:19.144Z,7.55
2023-02-11T06:32:51.995Z,7.70
2023-02-11T06:35:24.622Z,8.27
2023-02-11T06:37:57.454Z,10.77
2023-02-11T06:40:29.891Z,8.93
2023-02-11T06:43:02.771Z,8.85
2023-02-11T06:45:35.388Z,7.07
2023-02-11T06:48:08.854Z,7.45
2023-02-11T06:50:41.374Z,7.00
2023-02-11T06:53:14.295Z,8.30
2023-02-11T06:55:46.806Z,8.82
2023-02-11T06:58:19.669Z,7.95
2023-02-11T07:00:52.651Z,7.00
2023-02-11T07:03:26.015Z,7.10
2023-02-11T07:05:58.437Z,6.95
2023-02-11T07:08:31.658Z,9.15
2023-02-11T07:11:14.369Z,8.45
2023-02-11T07:13:47.810Z,8.75
2023-02-11T07:16:20.757Z,8.63
2023-02-11T07:18:54.154Z,8.20
2023-02-11T07:21:26.929Z,8.95
2023-02-11T07:23:59.953Z,9.52
2023-02-11T07:26:32.406Z,8.95
2023-02-11T07:29:05.856Z,8.05
2023-02-11T07:31:38.508Z,9.25
2023-02-11T07:34:11.625Z,8.07
2023-02-11T07:36:46.155Z,8.77
2023-02-11T07:39:27.492Z,10.45
2023-02-11T07:42:01.829Z,7.60
2023-02-11T07:44:35.426Z,9.13
2023-02-11T07:47:08.020Z,9.13
2023-02-11T07:49:40.991Z,8.80
2023-02-11T07:52:13.505Z,7.78
2023-02-11T07:54:48.235Z,8.65
2023-02-11T07:57:23.964Z,9.65
2023-02-11T07:59:56.827Z,10.27
2023-02-11T08:02:29.444Z,8.77
2023-02-11T08:05:02.393Z,8.15
2023-02-11T08:07:35.053Z,10.93
2023-02-11T08:10:08.089Z,8.60
2023-02-11T08:12:41.094Z,10.30
2023-02-11T08:15:14.079Z,6.50
2023-02-11T08:17:46.637Z,9.45
2023-02-11T08:20:19.520Z,9.27
2023-02-11T08:22:52.035Z,8.93
2023-02-11T08:25:25.253Z,9.50
2023-02-11T08:27:58.445Z,8.07
2023-02-11T08:30:31.382Z,7.93
2023-02-11T08:33:04.011Z,7.85
2023-02-11T08:35:37.601Z,7.78
2023-02-11T08:38:10.066Z,8.90
2023-02-11T08:40:42.969Z,8.85
2023-02-11T08:43:15.630Z,8.75
2023-02-11T08:45:49.002Z,9.10
2023-02-11T08:48:21.793Z,7.75
2023-02-11T08:50:57.844Z,8.50
2023-02-11T08:53:30.498Z,9.02
2023-02-11T08:56:03.592Z,8.98
2023-02-11T08:58:36.104Z,11.55
2023-02-11T09:01:22.646Z,9.30
2023-02-11T09:03:56.384Z,11.45
2023-02-11T09:06:29.790Z,9.23
2023-02-11T09:09:02.342Z,12.90
2023-02-11T09:11:36.561Z,11.95
2023-02-11T09:14:13.262Z,11.20
2023-02-11T09:16:46.456Z,7.93
2023-02-11T09:19:19.672Z,12.38
2023-02-11T09:21:52.560Z,14.23
2023-02-11T09:24:25.122Z,8.65
2023-02-11T09:26:58.335Z,11.00
2023-02-11T09:29:30.772Z,7.72
2023-02-11T09:32:03.778Z,6.20
2023-02-11T09:34:36.424Z,12.32
2023-02-11T09:37:09.399Z,10.88
2023-02-11T09:39:41.944Z,8.93
2023-02-11T09:42:30.822Z,10.05
2023-02-11T09:45:04.716Z,10.07
2023-02-11T09:47:43.529Z,9.60
2023-02-11T09:50:34.283Z,10.02
2023-02-11T09:53:12.144Z,9.77
2023-02-11T09:55:46.906Z,9.07
2023-02-11T09:58:23.101Z,9.18
2023-02-11T10:01:14.271Z,11.13
2023-02-11T10:03:47.177Z,8.93
2023-02-11T10:06:20.353Z,7.85
2023-02-11T10:08:53.277Z,9.15
2023-02-11T10:11:43.951Z,9.52
2023-02-11T10:14:19.569Z,8.00
2023-02-11T10:16:59.705Z,9.15
2023-02-11T10:19:41.834Z,10.43
2023-02-11T10:22:14.325Z,8.32
2023-02-11T10:25:00.687Z,8.27
2023-02-11T10:27:34.536Z,7.15
2023-02-11T10:30:16.489Z,8.75
2023-02-11T10:33:02.542Z,7.65
2023-02-11T10:35:35.388Z,8.18
2023-02-11T10:38:08.942Z,7.13
2023-02-11T10:40:42.308Z,9.50
2023-02-11T10:43:16.521Z,10.27
2023-02-11T10:45:50.859Z,11.15
2023-02-11T10:48:38.764Z,11.57
2023-02-11T10:51:14.279Z,8.25
2023-02-11T10:53:48.299Z,9.23
2023-02-11T10:56:26.484Z,9.13
2023-02-11T10:59:15.793Z,7.55
2023-02-11T11:01:53.627Z,8.88
2023-02-11T11:04:38.891Z,8.60
2023-02-11T11:07:25.389Z,7.75
2023-02-11T11:10:00.709Z,8.43
2023-02-11T11:12:47.779Z,8.02
2023-02-11T11:15:27.479Z,8.57
2023-02-11T11:18:23.385Z,8.40
2023-02-11T11:20:58.943Z,8.27
2023-02-11T11:23:32.600Z,7.93
2023-02-11T11:26:10.758Z,9.52
2023-02-11T11:28:54.675Z,5.97
2023-02-11T11:31:31.164Z,8.18
2023-02-11T11:34:16.311Z,8.63
2023-02-11T11:36:50.242Z,7.63
2023-02-11T11:39:24.605Z,7.32
2023-02-11T11:42:01.468Z,6.85
2023-02-11T11:44:35.865Z,7.78
2023-02-11T11:47:14.234Z,6.43
2023-02-11T11:50:06.206Z,6.65
2023-02-11T11:52:52.278Z,7.60
2023-02-11T11:55:27.389Z,7.47
2023-02-11T11:57:59.969Z,5.97
2023-02-11T12:00:36.620Z,6.00
2023-02-11T12:03:37.517Z,7.35
2023-02-11T12:06:28.996Z,7.13
2023-02-11T12:09:16.645Z,6.25
2023-02-11T12:12:07.982Z,5.20
2023-02-11T12:14:47.299Z,11.82
2023-02-11T12:17:42.914Z,10.32
2023-02-11T12:20:17.994Z,7.30
2023-02-11T12:23:01.566Z,11.75
2023-02-11T12:25:52.953Z,9.20
2023-02-11T12:28:34.037Z,9.30
2023-02-11T12:31:13.365Z,7.72
2023-02-11T12:33:55.262Z,7.78
2023-02-11T12:36:39.727Z,6.70
2023-02-11T12:39:24.510Z,7.00
2023-02-11T12:42:15.742Z,5.82
2023-02-11T12:44:52.107Z,7.15
2023-02-11T12:47:27.459Z,7.35
2023-02-11T12:50:14.570Z,7.93
2023-02-11T12:52:50.070Z,9.23
2023-02-11T12:55:24.658Z,7.30
2023-02-11T12:57:59.297Z,5.55
2023-02-11T13:00:41.110Z,8.63
2023-02-11T13:03:19.463Z,10.60
2023-02-11T13:05:54.109Z,8.07
2023-02-11T13:08:30.653Z,10.55
2023-02-11T13:11:08.276Z,8.60
2023-02-11T13:13:49.910Z,9.95
2023-02-11T13:19:07.326Z,8.45
2023-02-11T13:21:56.325Z,8.57
2023-02-11T13:24:37.726Z,9.48
2023-02-11T13:29:46.430Z,10.40
2023-02-11T13:32:19.299Z,10.55
2023-02-11T13:34:51.890Z,8.48
2023-02-11T13:37:32.522Z,8.30
2023-02-11T13:40:08.080Z,7.63
2023-02-11T13:42:51.360Z,7.57
2023-02-11T13:45:36.422Z,7.78
2023-02-11T13:48:22.664Z,7.82
2023-02-11T13:50:57.120Z,6.88
2023-02-11T13:53:30.474Z,7.15
2023-02-11T13:56:11.676Z,6.68
2023-02-11T13:58:48.831Z,10.23
2023-02-11T14:01:40.595Z,6.78
2023-02-11T14:07:42.728Z,6.53
2023-02-11T14:10:34.277Z,8.13
2023-02-11T14:13:20.100Z,6.53
2023-02-11T14:16:06.323Z,6.65
2023-02-11T14:18:44.913Z,7.43
2023-02-11T14:21:20.911Z,7.05
2023-02-11T14:23:54.806Z,8.52
2023-02-11T14:26:36.944Z,7.28
2023-02-11T14:29:24.342Z,8.95
2023-02-11T14:32:09.653Z,7.57
2023-02-11T14:34:57.368Z,7.63
2023-02-11T14:37:30.216Z,7.13
2023-02-11T14:40:05.706Z,5.80
2023-02-11T14:42:38.672Z,7.07
2023-02-11T14:45:15.712Z,7.13
2023-02-11T14:47:54.140Z,7.78
2023-02-11T14:50:28.418Z,8.27
2023-02-11T14:53:01.668Z,8.77
2023-02-11T14:55:37.851Z,7.35
2023-02-11T14:58:14.134Z,10.60
2023-02-11T15:01:01.129Z,12.00
2023-02-11T15:03:35.500Z,13.80
2023-02-11T15:06:19.405Z,12.40
2023-02-11T15:08:53.878Z,9.02
2023-02-11T15:11:27.002Z,9.82
2023-02-11T15:14:06.734Z,12.50
2023-02-11T15:16:43.852Z,9.65
2023-02-11T15:19:20.261Z,8.95
2023-02-11T15:21:53.195Z,8.13
2023-02-11T15:24:26.164Z,8.77
2023-02-11T15:27:21.316Z,9.02
2023-02-11T15:29:54.320Z,9.68
2023-02-11T15:32:27.438Z,12.82
2023-02-11T15:35:00.496Z,12.25
2023-02-11T15:37:33.386Z,15.40
2023-02-11T15:40:11.332Z,17.90
2023-02-11T15:42:58.511Z,17.23
2023-02-11T15:45:37.958Z,14.20
2023-02-11T15:48:13.814Z,15.00
2023-02-11T15:50:52.346Z,19.67
2023-02-11T15:53:31.098Z,17.25
2023-02-11T15:56:03.954Z,17.38
2023-02-11T15:58:38.099Z,15.82
2023-02-11T16:01:11.532Z,14.05
2023-02-11T16:03:44.474Z,13.82
2023-02-11T16:06:25.321Z,15.68
2023-02-11T16:08:59.202Z,18.92
2023-02-11T16:11:32.074Z,15.52
2023-02-11T16:14:21.405Z,13.07
2023-02-11T16:16:56.495Z,15.18
2023-02-11T16:19:29.097Z,12.13
2023-02-11T16:22:08.578Z,10.65
2023-02-11T16:24:41.202Z,14.38
2023-02-11T16:27:25.022Z,13.98
2023-02-11T16:29:58.891Z,10.40
2023-02-11T16:32:32.014Z,14.98
2023-02-11T16:35:05.357Z,9.77
2023-02-11T16:37:38.620Z,17.17
2023-02-11T16:40:12.209Z,13.98
2023-02-11T16:42:45.182Z,22.15
2023-02-11T16:45:17.670Z,15.85
2023-02-11T16:47:50.561Z,10.93
2023-02-11T16:50:24.129Z,14.27
2023-02-11T16:52:57.490Z,14.07
2023-02-11T16:55:30.249Z,13.63
2023-02-11T16:58:03.196Z,15.07
2023-02-11T17:00:36.595Z,14.32
2023-02-11T17:03:11.407Z,12.50
2023-02-11T17:05:54.986Z,10.10
2023-02-11T17:08:28.637Z,15.82
2023-02-11T17:11:01.113Z,14.13
2023-02-11T17:13:34.458Z,10.40
2023-02-11T17:16:11.636Z,8.80
2023-02-11T17:18:44.641Z,10.07
2023-02-11T17:21:17.444Z,13.60
2023-02-11T17:23:50.381Z,13.20
2023-02-11T17:26:22.965Z,10.50
2023-02-11T17:28:55.797Z,11.20
2023-02-11T17:31:28.382Z,11.18
2023-02-11T17:34:01.787Z,14.35
2023-02-11T17:36:34.667Z,12.80
2023-02-11T17:39:08.460Z,20.52
2023-02-11T17:41:41.091Z,25.88
2023-02-11T17:44:15.825Z,14.27
2023-02-11T17:46:48.372Z,16.05
2023-02-11T17:49:21.271Z,15.35
2023-02-11T17:51:53.785Z,14.60
2023-02-11T17:54:26.894Z,17.55
2023-02-11T17:56:59.337Z,18.42
2023-02-11T17:59:35.907Z,19.50
2023-02-11T18:02:10.935Z,13.80
2023-02-11T18:04:44.431Z,18.85
2023-02-11T18:07:17.713Z,19.52
2023-02-11T18:09:50.765Z,14.82
2023-02-11T18:12:26.600Z,18.80
2023-02-11T18:14:59.658Z,20.13
2023-02-11T18:17:32.269Z,18.20
2023-02-11T18:20:05.753Z,22.60
2023-02-11T18:22:40.498Z,19.95
2023-02-11T18:25:15.349Z,13.93
2023-02-11T18:27:47.947Z,11.65
2023-02-11T18:30:21.405Z,17.60
2023-02-11T18:32:55.430Z,14.55
2023-02-11T18:35:28.483Z,17.58
2023-02-11T18:38:00.958Z,19.33
2023-02-11T18:40:34.234Z,12.95
2023-02-11T18:43:07.116Z,15.43
2023-02-11T18:45:44.102Z,9.65
2023-02-11T18:48:17.158Z,10.90
2023-02-11T18:50:50.049Z,11.35
2023-02-11T18:53:23.121Z,14.40
2023-02-11T18:55:56.064Z,11.10
2023-02-11T18:58:28.674Z,11.32
2023-02-11T19:01:01.694Z,11.20
2023-02-11T19:03:34.369Z,12.32
2023-02-11T19:06:07.457Z,11.80
2023-02-11T19:08:40.150Z,13.30
2023-02-11T19:11:14.891Z,10.63
2023-02-11T19:13:51.693Z,10.80
2023-02-11T19:16:25.862Z,11.02
2023-02-11T19:19:00.295Z,9.70
2023-02-11T19:21:34.619Z,9.35
2023-02-11T19:24:08.106Z,10.75
2023-02-11T19:26:41.601Z,7.13
2023-02-11T19:29:14.103Z,8.38
2023-02-11T19:31:47.324Z,10.88
2023-02-11T19:34:20.434Z,8.85
2023-02-11T19:36:54.612Z,12.18
2023-02-11T19:39:27.288Z,8.38
2023-02-11T19:42:00.169Z,7.95
2023-02-11T19:44:32.869Z,8.00
2023-02-11T19:47:07.122Z,6.55
2023-02-11T19:49:39.838Z,7.30
2023-02-11T19:52:12.896Z,7.60
2023-02-11T19:54:45.429Z,8.65
2023-02-11T19:57:18.583Z,7.07
2023-02-11T19:59:51.260Z,6.57
2023-02-11T20:02:24.409Z,10.93
2023-02-11T20:04:57.231Z,6.55
2023-02-11T20:07:31.200Z,11.02
2023-02-11T20:10:03.761Z,6.45
2023-02-11T20:12:36.960Z,7.65
2023-02-11T20:15:09.827Z,7.55
2023-02-11T20:17:42.789Z,6.57
2023-02-11T20:20:15.322Z,4.70
2023-02-11T20:22:48.183Z,5.40
2023-02-11T20:25:20.877Z,8.77
2023-02-11T20:27:53.773Z,6.35
2023-02-11T20:30:26.327Z,5.57
2023-02-11T20:32:59.425Z,8.13
2023-02-11T20:35:32.062Z,6.63
2023-02-11T20:38:04.945Z,5.35
2023-02-11T20:40:38.725Z,5.70
2023-02-11T20:43:11.598Z,5.75
2023-02-11T20:45:44.231Z,5.13
2023-02-11T20:48:17.094Z,6.03
2023-02-11T20:50:49.933Z,10.48
2023-02-11T20:53:22.819Z,6.90
2023-02-11T20:55:55.316Z,6.07
2023-02-11T20:58:28.405Z,4.43
2023-02-11T21:01:16.884Z,5.95
2023-02-11T21:03:51.199Z,5.05
2023-02-11T21:06:24.780Z,5.25
2023-02-11T21:08:57.880Z,4.53
2023-02-11T21:11:31.439Z,4.63
2023-02-11T21:14:04.478Z,4.10
2023-02-11T21:16:37.303Z,3.72
2023-02-11T21:19:10.195Z,4.35
2023-02-11T21:21:43.440Z,4.05
2023-02-11T21:24:16.676Z,3.63
2023-02-11T21:26:49.252Z,3.38
2023-02-11T21:29:22.608Z,4.15
2023-02-11T21:31:55.139Z,3.60
2023-02-11T21:34:28.212Z,4.55
2023-02-11T21:37:00.793Z,8.90
2023-02-11T21:39:33.708Z,6.78
2023-02-11T21:42:06.404Z,7.32
2023-02-11T21:44:39.322Z,4.32
2023-02-11T21:47:11.914Z,5.15
2023-02-11T21:49:44.754Z,6.00
2023-02-11T21:52:17.362Z,5.07
2023-02-11T21:54:50.854Z,6.55
2023-02-11T21:57:24.684Z,5.75
2023-02-11T21:59:57.563Z,5.25
2023-02-11T22:02:30.162Z,4.63
2023-02-11T22:05:03.261Z,4.53
2023-02-11T22:07:36.625Z,5.13
2023-02-11T22:10:09.813Z,4.68
2023-02-11T22:12:42.546Z,6.43
2023-02-11T22:15:15.663Z,5.75
2023-02-11T22:17:48.203Z,4.88
2023-02-11T22:20:21.185Z,5.85
2023-02-11T22:22:53.782Z,6.32
2023-02-11T22:25:26.685Z,5.68
2023-02-11T22:27:59.667Z,6.35
2023-02-11T22:30:33.122Z,6.22
2023-02-11T22:33:06.018Z,5.68
2023-02-11T22:35:38.950Z,5.47
2023-02-11T22:38:11.535Z,5.65
2023-02-11T22:40:44.725Z,6.03
2023-02-11T22:43:17.242Z,6.35
2023-02-11T22:45:50.458Z,4.80
2023-02-11T22:48:23.305Z,6.97
2023-02-11T22:50:56.322Z,5.68
2023-02-11T22:53:29.207Z,5.22
2023-02-11T22:56:08.306Z,8.07
2023-02-11T22:58:41.023Z,6.57
2023-02-11T23:01:14.391Z,5.35
2023-02-11T23:03:47.102Z,5.95
2023-02-11T23:06:20.053Z,6.20
2023-02-11T23:08:52.805Z,6.47
2023-02-11T23:11:27.072Z,6.95
2023-02-11T23:13:59.689Z,5.85
2023-02-11T23:16:34.383Z,5.30
2023-02-11T23:19:08.607Z,5.32
2023-02-11T23:21:41.643Z,5.43
2023-02-11T23:24:15.377Z,5.82
2023-02-11T23:26:48.696Z,6.90
2023-02-11T23:29:21.342Z,7.10
2023-02-11T23:31:56.972Z,6.25
2023-02-11T23:34:31.130Z,5.65
2023-02-11T23:37:04.422Z,6.10
2023-02-11T23:39:37.315Z,6.55
2023-02-11T23:42:12.265Z,7.68
2023-02-11T23:44:44.799Z,5.85
2023-02-11T23:47:17.637Z,8.02
2023-02-11T23:49:50.077Z,7.75
2023-02-11T23:52:23.023Z,6.82
2023-02-11T23:54:55.736Z,7.60
2023-02-11T23:57:28.932Z,6.28
